sensor_id;sensor_type;location;lat;lon;timestamp;P1;durP1;ratioP1;P2;durP2;ratioP2
48375;SDS011;34178;50.904;11.560;2022-11-20T00:00:46;40.15;;;17.60;;
48375;SDS011;34178;50.904;11.560;2022-11-20T00:03:12;38.38;;;16.45;;
48375;SDS011;34178;50.904;11.560;2022-11-20T00:05:37;39.72;;;16.67;;
48375;SDS011;34178;50.904;11.560;2022-11-20T00:08:03;40.05;;;17.73;;
48375;SDS011;34178;50.904;11.560;2022-11-20T00:10:29;40.92;;;17.05;;
48375;SDS011;34178;50.904;11.560;2022-11-20T00:12:55;50.25;;;19.77;;
48375;SDS011;34178;50.904;11.560;2022-11-20T00:15:22;45.38;;;17.95;;
48375;SDS011;34178;50.904;11.560;2022-11-20T00:17:48;56.00;;;19.30;;
48375;SDS011;34178;50.904;11.560;2022-11-20T00:20:13;46.25;;;17.90;;
48375;SDS011;34178;50.904;11.560;2022-11-20T00:22:39;43.35;;;17.77;;
48375;SDS011;34178;50.904;11.560;2022-11-20T00:25:05;39.60;;;17.45;;
48375;SDS011;34178;50.904;11.560;2022-11-20T00:27:31;40.65;;;16.95;;
48375;SDS011;34178;50.904;11.560;2022-11-20T00:29:56;44.80;;;18.33;;
48375;SDS011;34178;50.904;11.560;2022-11-20T00:32:22;42.20;;;17.80;;
48375;SDS011;34178;50.904;11.560;2022-11-20T00:34:47;43.95;;;17.98;;
48375;SDS011;34178;50.904;11.560;2022-11-20T00:37:13;38.75;;;17.00;;
48375;SDS011;34178;50.904;11.560;2022-11-20T00:39:39;43.25;;;17.58;;
48375;SDS011;34178;50.904;11.560;2022-11-20T00:42:04;42.88;;;20.20;;
48375;SDS011;34178;50.904;11.560;2022-11-20T00:44:30;41.72;;;18.75;;
48375;SDS011;34178;50.904;11.560;2022-11-20T00:46:56;43.80;;;19.08;;
48375;SDS011;34178;50.904;11.560;2022-11-20T00:49:21;40.70;;;19.35;;
48375;SDS011;34178;50.904;11.560;2022-11-20T00:51:47;50.70;;;22.08;;
48375;SDS011;34178;50.904;11.560;2022-11-20T00:54:13;49.53;;;22.67;;
48375;SDS011;34178;50.904;11.560;2022-11-20T00:56:38;50.47;;;21.83;;
48375;SDS011;34178;50.904;11.560;2022-11-20T00:59:05;48.08;;;20.33;;
48375;SDS011;34178;50.904;11.560;2022-11-20T01:01:30;47.17;;;19.63;;
48375;SDS011;34178;50.904;11.560;2022-11-20T01:03:58;47.80;;;20.15;;
48375;SDS011;34178;50.904;11.560;2022-11-20T01:06:25;45.50;;;18.15;;
48375;SDS011;34178;50.904;11.560;2022-11-20T01:09:02;45.58;;;19.38;;
48375;SDS011;34178;50.904;11.560;2022-11-20T01:11:37;42.05;;;19.35;;
48375;SDS011;34178;50.904;11.560;2022-11-20T01:14:05;46.65;;;19.55;;
48375;SDS011;34178;50.904;11.560;2022-11-20T01:16:51;43.35;;;18.45;;
48375;SDS011;34178;50.904;11.560;2022-11-20T01:19:21;41.63;;;17.70;;
48375;SDS011;34178;50.904;11.560;2022-11-20T01:21:49;44.95;;;19.23;;
48375;SDS011;34178;50.904;11.560;2022-11-20T01:24:17;41.35;;;17.42;;
48375;SDS011;34178;50.904;11.560;2022-11-20T01:26:44;43.50;;;18.02;;
48375;SDS011;34178;50.904;11.560;2022-11-20T01:29:13;41.22;;;17.23;;
48375;SDS011;34178;50.904;11.560;2022-11-20T01:31:44;42.75;;;16.85;;
48375;SDS011;34178;50.904;11.560;2022-11-20T01:34:11;39.25;;;17.15;;
48375;SDS011;34178;50.904;11.560;2022-11-20T01:36:41;45.33;;;18.55;;
48375;SDS011;34178;50.904;11.560;2022-11-20T01:39:11;47.33;;;18.45;;
48375;SDS011;34178;50.904;11.560;2022-11-20T01:41:38;45.63;;;19.42;;
48375;SDS011;34178;50.904;11.560;2022-11-20T01:47:34;40.75;;;17.27;;
48375;SDS011;34178;50.904;11.560;2022-11-20T01:50:11;42.63;;;17.30;;
48375;SDS011;34178;50.904;11.560;2022-11-20T01:52:49;42.65;;;17.67;;
48375;SDS011;34178;50.904;11.560;2022-11-20T01:55:20;41.15;;;17.13;;
48375;SDS011;34178;50.904;11.560;2022-11-20T01:57:49;36.83;;;15.73;;
48375;SDS011;34178;50.904;11.560;2022-11-20T02:00:17;40.60;;;17.40;;
48375;SDS011;34178;50.904;11.560;2022-11-20T02:20:48;42.85;;;15.98;;
48375;SDS011;34178;50.904;11.560;2022-11-20T02:25:52;33.92;;;15.07;;
48375;SDS011;34178;50.904;11.560;2022-11-20T02:28:19;45.15;;;17.50;;
48375;SDS011;34178;50.904;11.560;2022-11-20T02:30:45;38.47;;;14.95;;
48375;SDS011;34178;50.904;11.560;2022-11-20T03:48:16;35.92;;;14.27;;
48375;SDS011;34178;50.904;11.560;2022-11-20T03:50:42;37.22;;;15.15;;
48375;SDS011;34178;50.904;11.560;2022-11-20T03:53:07;37.75;;;15.40;;
48375;SDS011;34178;50.904;11.560;2022-11-20T03:55:33;38.20;;;14.73;;
48375;SDS011;34178;50.904;11.560;2022-11-20T03:57:59;38.88;;;15.00;;
48375;SDS011;34178;50.904;11.560;2022-11-20T04:00:24;40.90;;;15.77;;
48375;SDS011;34178;50.904;11.560;2022-11-20T07:51:00;52.00;;;20.50;;
48375;SDS011;34178;50.904;11.560;2022-11-20T08:48:28;38.95;;;17.95;;
48375;SDS011;34178;50.904;11.560;2022-11-20T08:50:56;40.15;;;18.08;;
48375;SDS011;34178;50.904;11.560;2022-11-20T10:28:24;38.35;;;17.88;;
48375;SDS011;34178;50.904;11.560;2022-11-20T10:31:14;33.22;;;17.85;;
48375;SDS011;34178;50.904;11.560;2022-11-20T10:40:59;39.35;;;18.35;;
48375;SDS011;34178;50.904;11.560;2022-11-20T10:43:47;37.25;;;20.27;;
48375;SDS011;34178;50.904;11.560;2022-11-20T10:46:17;38.13;;;20.20;;
48375;SDS011;34178;50.904;11.560;2022-11-20T15:26:04;81.07;;;39.20;;
48375;SDS011;34178;50.904;11.560;2022-11-20T15:28:38;62.22;;;30.17;;
48375;SDS011;34178;50.904;11.560;2022-11-20T15:31:06;80.07;;;34.42;;
48375;SDS011;34178;50.904;11.560;2022-11-20T15:33:34;75.38;;;34.95;;
48375;SDS011;34178;50.904;11.560;2022-11-20T15:36:00;129.13;;;49.40;;
48375;SDS011;34178;50.904;11.560;2022-11-20T15:38:25;175.40;;;65.40;;
48375;SDS011;34178;50.904;11.560;2022-11-20T15:40:51;116.55;;;46.10;;
48375;SDS011;34178;50.904;11.560;2022-11-20T15:45:54;73.63;;;37.00;;
48375;SDS011;34178;50.904;11.560;2022-11-20T15:48:29;86.63;;;43.88;;
48375;SDS011;34178;50.904;11.560;2022-11-20T15:51:46;68.50;;;35.35;;
48375;SDS011;34178;50.904;11.560;2022-11-20T15:53:51;143.50;;;51.25;;
48375;SDS011;34178;50.904;11.560;2022-11-20T15:56:17;182.75;;;83.68;;
48375;SDS011;34178;50.904;11.560;2022-11-20T15:58:43;83.45;;;41.65;;
48375;SDS011;34178;50.904;11.560;2022-11-20T16:01:10;70.25;;;31.15;;
48375;SDS011;34178;50.904;11.560;2022-11-20T16:13:58;79.75;;;36.65;;
48375;SDS011;34178;50.904;11.560;2022-11-20T16:16:42;107.00;;;47.65;;
48375;SDS011;34178;50.904;11.560;2022-11-20T16:19:11;100.53;;;50.13;;
48375;SDS011;34178;50.904;11.560;2022-11-20T16:21:38;119.97;;;58.45;;
48375;SDS011;34178;50.904;11.560;2022-11-20T16:24:06;107.28;;;54.47;;
48375;SDS011;34178;50.904;11.560;2022-11-20T16:26:33;56.88;;;27.73;;
48375;SDS011;34178;50.904;11.560;2022-11-20T16:29:00;54.38;;;25.70;;
48375;SDS011;34178;50.904;11.560;2022-11-20T16:31:27;52.33;;;24.90;;
48375;SDS011;34178;50.904;11.560;2022-11-20T16:33:54;49.80;;;24.38;;
48375;SDS011;34178;50.904;11.560;2022-11-20T16:36:22;48.67;;;23.40;;
48375;SDS011;34178;50.904;11.560;2022-11-20T16:38:56;44.13;;;22.42;;
48375;SDS011;34178;50.904;11.560;2022-11-20T16:41:23;49.72;;;21.73;;
48375;SDS011;34178;50.904;11.560;2022-11-20T16:43:51;45.10;;;23.17;;
48375;SDS011;34178;50.904;11.560;2022-11-20T16:46:22;44.20;;;22.10;;
48375;SDS011;34178;50.904;11.560;2022-11-20T16:48:52;52.83;;;27.65;;
48375;SDS011;34178;50.904;11.560;2022-11-20T16:51:19;50.83;;;27.00;;
48375;SDS011;34178;50.904;11.560;2022-11-20T16:53:45;71.38;;;36.05;;
48375;SDS011;34178;50.904;11.560;2022-11-20T16:56:12;74.13;;;36.33;;
48375;SDS011;34178;50.904;11.560;2022-11-20T16:58:41;64.72;;;31.23;;
48375;SDS011;34178;50.904;11.560;2022-11-20T17:01:08;118.85;;;56.08;;
48375;SDS011;34178;50.904;11.560;2022-11-20T17:03:38;75.80;;;37.90;;
48375;SDS011;34178;50.904;11.560;2022-11-20T17:06:15;154.65;;;69.53;;
48375;SDS011;34178;50.904;11.560;2022-11-20T17:08:43;96.60;;;43.05;;
48375;SDS011;34178;50.904;11.560;2022-11-20T17:11:11;137.15;;;61.05;;
48375;SDS011;34178;50.904;11.560;2022-11-20T17:13:38;114.30;;;51.13;;
48375;SDS011;34178;50.904;11.560;2022-11-20T17:16:06;133.77;;;61.33;;
48375;SDS011;34178;50.904;11.560;2022-11-20T17:18:33;114.40;;;50.83;;
48375;SDS011;34178;50.904;11.560;2022-11-20T17:20:59;130.65;;;62.00;;
48375;SDS011;34178;50.904;11.560;2022-11-20T17:23:38;98.22;;;48.22;;
48375;SDS011;34178;50.904;11.560;2022-11-20T17:28:32;77.25;;;38.00;;
48375;SDS011;34178;50.904;11.560;2022-11-20T17:30:59;75.03;;;38.78;;
48375;SDS011;34178;50.904;11.560;2022-11-20T17:33:36;94.15;;;46.10;;
48375;SDS011;34178;50.904;11.560;2022-11-20T17:36:04;100.72;;;51.55;;
48375;SDS011;34178;50.904;11.560;2022-11-20T17:38:31;106.40;;;51.95;;
48375;SDS011;34178;50.904;11.560;2022-11-20T17:41:03;113.72;;;54.83;;
48375;SDS011;34178;50.904;11.560;2022-11-20T17:43:31;87.57;;;46.80;;
48375;SDS011;34178;50.904;11.560;2022-11-20T17:45:57;75.93;;;38.40;;
48375;SDS011;34178;50.904;11.560;2022-11-20T17:48:23;69.15;;;32.92;;
48375;SDS011;34178;50.904;11.560;2022-11-20T17:50:49;66.57;;;32.17;;
48375;SDS011;34178;50.904;11.560;2022-11-20T17:53:14;108.00;;;50.47;;
48375;SDS011;34178;50.904;11.560;2022-11-20T17:55:40;84.68;;;39.85;;
48375;SDS011;34178;50.904;11.560;2022-11-20T17:58:34;70.95;;;34.03;;
48375;SDS011;34178;50.904;11.560;2022-11-20T18:01:04;78.22;;;40.00;;
48375;SDS011;34178;50.904;11.560;2022-11-20T18:03:31;83.13;;;40.30;;
48375;SDS011;34178;50.904;11.560;2022-11-20T18:05:56;81.82;;;40.50;;
48375;SDS011;34178;50.904;11.560;2022-11-20T18:08:22;81.63;;;40.67;;
48375;SDS011;34178;50.904;11.560;2022-11-20T18:10:47;75.38;;;37.20;;
48375;SDS011;34178;50.904;11.560;2022-11-20T18:13:13;78.15;;;39.53;;
48375;SDS011;34178;50.904;11.560;2022-11-20T18:15:39;83.60;;;44.72;;
48375;SDS011;34178;50.904;11.560;2022-11-20T18:18:04;80.40;;;38.85;;
48375;SDS011;34178;50.904;11.560;2022-11-20T18:20:30;87.05;;;40.70;;
48375;SDS011;34178;50.904;11.560;2022-11-20T18:22:56;123.38;;;62.25;;
48375;SDS011;34178;50.904;11.560;2022-11-20T18:25:22;92.15;;;47.30;;
48375;SDS011;34178;50.904;11.560;2022-11-20T18:27:47;78.47;;;42.22;;
48375;SDS011;34178;50.904;11.560;2022-11-20T18:30:13;76.18;;;38.45;;
48375;SDS011;34178;50.904;11.560;2022-11-20T18:32:39;71.90;;;37.83;;
48375;SDS011;34178;50.904;11.560;2022-11-20T18:35:05;72.88;;;36.92;;
48375;SDS011;34178;50.904;11.560;2022-11-20T18:37:31;77.82;;;38.70;;
48375;SDS011;34178;50.904;11.560;2022-11-20T18:39:57;126.03;;;49.97;;
48375;SDS011;34178;50.904;11.560;2022-11-20T18:42:22;107.60;;;51.10;;
48375;SDS011;34178;50.904;11.560;2022-11-20T18:45:06;98.45;;;47.30;;
48375;SDS011;34178;50.904;11.560;2022-11-20T18:47:35;91.75;;;43.38;;
48375;SDS011;34178;50.904;11.560;2022-11-20T18:50:03;79.15;;;40.50;;
48375;SDS011;34178;50.904;11.560;2022-11-20T18:52:32;81.35;;;40.28;;
48375;SDS011;34178;50.904;11.560;2022-11-20T18:55:01;72.80;;;36.00;;
48375;SDS011;34178;50.904;11.560;2022-11-20T18:57:28;69.53;;;36.08;;
48375;SDS011;34178;50.904;11.560;2022-11-20T18:59:54;72.43;;;36.22;;
48375;SDS011;34178;50.904;11.560;2022-11-20T19:02:23;77.60;;;39.50;;
48375;SDS011;34178;50.904;11.560;2022-11-20T19:04:50;104.75;;;55.22;;
48375;SDS011;34178;50.904;11.560;2022-11-20T19:07:16;97.43;;;46.53;;
48375;SDS011;34178;50.904;11.560;2022-11-20T19:09:42;81.68;;;38.38;;
48375;SDS011;34178;50.904;11.560;2022-11-20T19:12:09;81.35;;;42.80;;
48375;SDS011;34178;50.904;11.560;2022-11-20T19:14:36;67.82;;;34.50;;
48375;SDS011;34178;50.904;11.560;2022-11-20T19:17:02;67.82;;;34.17;;
48375;SDS011;34178;50.904;11.560;2022-11-20T19:19:30;58.10;;;27.92;;
48375;SDS011;34178;50.904;11.560;2022-11-20T19:21:56;60.17;;;30.35;;
48375;SDS011;34178;50.904;11.560;2022-11-20T19:24:21;57.08;;;29.40;;
48375;SDS011;34178;50.904;11.560;2022-11-20T19:26:47;60.60;;;30.20;;
48375;SDS011;34178;50.904;11.560;2022-11-20T19:29:14;59.42;;;31.00;;
48375;SDS011;34178;50.904;11.560;2022-11-20T19:31:41;54.72;;;28.85;;
48375;SDS011;34178;50.904;11.560;2022-11-20T19:34:07;67.68;;;34.75;;
48375;SDS011;34178;50.904;11.560;2022-11-20T19:36:37;65.75;;;34.28;;
48375;SDS011;34178;50.904;11.560;2022-11-20T19:39:04;67.38;;;32.75;;
48375;SDS011;34178;50.904;11.560;2022-11-20T19:41:32;64.55;;;32.42;;
48375;SDS011;34178;50.904;11.560;2022-11-20T19:43:59;61.92;;;31.02;;
48375;SDS011;34178;50.904;11.560;2022-11-20T19:46:30;59.40;;;29.25;;
48375;SDS011;34178;50.904;11.560;2022-11-20T19:48:56;61.90;;;28.42;;
48375;SDS011;34178;50.904;11.560;2022-11-20T19:51:24;52.78;;;25.05;;
48375;SDS011;34178;50.904;11.560;2022-11-20T19:53:54;49.28;;;24.02;;
48375;SDS011;34178;50.904;11.560;2022-11-20T19:56:20;54.50;;;27.85;;
48375;SDS011;34178;50.904;11.560;2022-11-20T19:58:46;66.20;;;34.42;;
48375;SDS011;34178;50.904;11.560;2022-11-20T20:01:13;58.58;;;30.88;;
48375;SDS011;34178;50.904;11.560;2022-11-20T20:03:41;73.00;;;32.35;;
48375;SDS011;34178;50.904;11.560;2022-11-20T20:06:09;66.63;;;32.08;;
48375;SDS011;34178;50.904;11.560;2022-11-20T20:08:46;56.75;;;28.13;;
48375;SDS011;34178;50.904;11.560;2022-11-20T20:11:16;64.25;;;30.67;;
48375;SDS011;34178;50.904;11.560;2022-11-20T20:13:43;56.65;;;27.42;;
48375;SDS011;34178;50.904;11.560;2022-11-20T20:16:14;56.60;;;27.98;;
48375;SDS011;34178;50.904;11.560;2022-11-20T20:18:42;55.70;;;27.33;;
48375;SDS011;34178;50.904;11.560;2022-11-20T20:21:09;53.80;;;28.13;;
48375;SDS011;34178;50.904;11.560;2022-11-20T20:23:36;60.72;;;27.42;;
48375;SDS011;34178;50.904;11.560;2022-11-20T20:26:04;57.03;;;26.00;;
48375;SDS011;34178;50.904;11.560;2022-11-20T20:28:31;58.50;;;28.63;;
48375;SDS011;34178;50.904;11.560;2022-11-20T20:31:01;57.50;;;29.08;;
48375;SDS011;34178;50.904;11.560;2022-11-20T20:33:36;54.47;;;27.33;;
48375;SDS011;34178;50.904;11.560;2022-11-20T20:36:03;47.50;;;24.23;;
48375;SDS011;34178;50.904;11.560;2022-11-20T20:38:29;54.13;;;26.58;;
48375;SDS011;34178;50.904;11.560;2022-11-20T20:40:54;52.83;;;26.73;;
48375;SDS011;34178;50.904;11.560;2022-11-20T20:43:20;52.20;;;25.63;;
48375;SDS011;34178;50.904;11.560;2022-11-20T20:45:46;52.20;;;26.52;;
48375;SDS011;34178;50.904;11.560;2022-11-20T20:48:13;57.78;;;28.13;;
48375;SDS011;34178;50.904;11.560;2022-11-20T20:50:40;57.85;;;30.13;;
48375;SDS011;34178;50.904;11.560;2022-11-20T20:53:06;61.90;;;33.40;;
48375;SDS011;34178;50.904;11.560;2022-11-20T20:55:31;56.35;;;30.25;;
48375;SDS011;34178;50.904;11.560;2022-11-20T20:57:58;63.45;;;32.97;;
48375;SDS011;34178;50.904;11.560;2022-11-20T21:00:24;65.38;;;32.55;;
48375;SDS011;34178;50.904;11.560;2022-11-20T21:02:49;71.32;;;34.53;;
48375;SDS011;34178;50.904;11.560;2022-11-20T21:05:15;63.10;;;30.50;;
48375;SDS011;34178;50.904;11.560;2022-11-20T21:07:41;64.03;;;30.92;;
48375;SDS011;34178;50.904;11.560;2022-11-20T21:10:25;55.63;;;27.90;;
48375;SDS011;34178;50.904;11.560;2022-11-20T21:12:51;58.05;;;29.23;;
48375;SDS011;34178;50.904;11.560;2022-11-20T21:15:17;63.35;;;29.23;;
48375;SDS011;34178;50.904;11.560;2022-11-20T21:17:43;60.97;;;28.10;;
48375;SDS011;34178;50.904;11.560;2022-11-20T21:20:11;53.90;;;27.60;;
48375;SDS011;34178;50.904;11.560;2022-11-20T21:22:56;55.58;;;28.98;;
48375;SDS011;34178;50.904;11.560;2022-11-20T21:25:21;55.72;;;27.52;;
48375;SDS011;34178;50.904;11.560;2022-11-20T21:27:47;55.03;;;27.88;;
48375;SDS011;34178;50.904;11.560;2022-11-20T21:30:13;61.17;;;29.33;;
48375;SDS011;34178;50.904;11.560;2022-11-20T21:32:39;62.10;;;29.10;;
48375;SDS011;34178;50.904;11.560;2022-11-20T21:35:04;57.22;;;28.20;;
48375;SDS011;34178;50.904;11.560;2022-11-20T21:37:30;59.53;;;28.95;;
48375;SDS011;34178;50.904;11.560;2022-11-20T21:39:56;56.55;;;29.00;;
48375;SDS011;34178;50.904;11.560;2022-11-20T21:42:22;55.10;;;27.08;;
48375;SDS011;34178;50.904;11.560;2022-11-20T21:44:47;51.65;;;26.35;;
48375;SDS011;34178;50.904;11.560;2022-11-20T21:47:13;53.10;;;25.13;;
48375;SDS011;34178;50.904;11.560;2022-11-20T21:49:39;51.15;;;25.00;;
48375;SDS011;34178;50.904;11.560;2022-11-20T21:52:04;52.83;;;25.38;;
48375;SDS011;34178;50.904;11.560;2022-11-20T21:54:30;53.95;;;24.95;;
48375;SDS011;34178;50.904;11.560;2022-11-20T21:56:56;53.22;;;24.35;;
48375;SDS011;34178;50.904;11.560;2022-11-20T21:59:22;48.50;;;26.55;;
48375;SDS011;34178;50.904;11.560;2022-11-20T22:01:47;54.13;;;26.73;;
48375;SDS011;34178;50.904;11.560;2022-11-20T22:04:13;52.70;;;25.90;;
48375;SDS011;34178;50.904;11.560;2022-11-20T22:06:39;49.83;;;24.67;;
48375;SDS011;34178;50.904;11.560;2022-11-20T22:09:05;54.25;;;24.48;;
48375;SDS011;34178;50.904;11.560;2022-11-20T22:11:31;52.78;;;24.67;;
48375;SDS011;34178;50.904;11.560;2022-11-20T22:13:56;58.17;;;27.77;;
48375;SDS011;34178;50.904;11.560;2022-11-20T22:16:41;54.90;;;27.05;;
48375;SDS011;34178;50.904;11.560;2022-11-20T22:19:06;55.45;;;26.65;;
48375;SDS011;34178;50.904;11.560;2022-11-20T22:21:33;59.22;;;26.30;;
48375;SDS011;34178;50.904;11.560;2022-11-20T22:23:59;64.28;;;29.67;;
48375;SDS011;34178;50.904;11.560;2022-11-20T22:26:25;60.38;;;28.48;;
48375;SDS011;34178;50.904;11.560;2022-11-20T22:28:53;59.20;;;27.75;;
48375;SDS011;34178;50.904;11.560;2022-11-20T22:31:21;58.83;;;27.75;;
48375;SDS011;34178;50.904;11.560;2022-11-20T22:33:49;56.90;;;27.13;;
48375;SDS011;34178;50.904;11.560;2022-11-20T22:36:22;59.78;;;26.38;;
48375;SDS011;34178;50.904;11.560;2022-11-20T22:38:49;58.15;;;27.83;;
48375;SDS011;34178;50.904;11.560;2022-11-20T22:41:19;61.53;;;29.73;;
48375;SDS011;34178;50.904;11.560;2022-11-20T22:43:46;63.10;;;29.38;;
48375;SDS011;34178;50.904;11.560;2022-11-20T22:46:17;62.45;;;29.20;;
48375;SDS011;34178;50.904;11.560;2022-11-20T22:48:44;60.33;;;29.40;;
48375;SDS011;34178;50.904;11.560;2022-11-20T22:51:13;60.30;;;28.70;;
48375;SDS011;34178;50.904;11.560;2022-11-20T22:53:41;57.67;;;27.25;;
48375;SDS011;34178;50.904;11.560;2022-11-20T22:56:08;59.67;;;28.08;;
48375;SDS011;34178;50.904;11.560;2022-11-20T22:58:36;65.35;;;30.52;;
48375;SDS011;34178;50.904;11.560;2022-11-20T23:03:59;62.55;;;29.55;;
48375;SDS011;34178;50.904;11.560;2022-11-20T23:06:26;55.58;;;27.75;;
48375;SDS011;34178;50.904;11.560;2022-11-20T23:08:53;58.72;;;28.20;;
48375;SDS011;34178;50.904;11.560;2022-11-20T23:11:19;59.53;;;27.30;;
48375;SDS011;34178;50.904;11.560;2022-11-20T23:13:50;61.58;;;27.88;;
48375;SDS011;34178;50.904;11.560;2022-11-20T23:18:44;53.45;;;25.05;;
48375;SDS011;34178;50.904;11.560;2022-11-20T23:21:11;56.25;;;26.35;;
48375;SDS011;34178;50.904;11.560;2022-11-20T23:23:38;54.00;;;24.45;;
48375;SDS011;34178;50.904;11.560;2022-11-20T23:26:05;55.10;;;24.13;;
48375;SDS011;34178;50.904;11.560;2022-11-20T23:28:32;63.08;;;26.10;;
48375;SDS011;34178;50.904;11.560;2022-11-20T23:30:59;52.10;;;24.48;;
48375;SDS011;34178;50.904;11.560;2022-11-20T23:33:25;56.53;;;24.75;;
48375;SDS011;34178;50.904;11.560;2022-11-20T23:35:51;53.75;;;24.75;;
48375;SDS011;34178;50.904;11.560;2022-11-20T23:38:17;55.95;;;24.88;;
48375;SDS011;34178;50.904;11.560;2022-11-20T23:40:49;53.47;;;24.58;;
48375;SDS011;34178;50.904;11.560;2022-11-20T23:43:16;55.80;;;25.15;;
48375;SDS011;34178;50.904;11.560;2022-11-20T23:45:43;55.50;;;25.60;;
48375;SDS011;34178;50.904;11.560;2022-11-20T23:48:10;51.25;;;24.45;;
48375;SDS011;34178;50.904;11.560;2022-11-20T23:50:36;50.45;;;24.23;;
48375;SDS011;34178;50.904;11.560;2022-11-20T23:53:02;54.08;;;24.10;;
48375;SDS011;34178;50.904;11.560;2022-11-20T23:55:28;55.08;;;25.05;;
48375;SDS011;34178;50.904;11.560;2022-11-20T23:57:53;56.55;;;27.10;;
